PWSweather.com
Personal Weather Stations
Station Observations
PENICUIKWS
PenicuikGB

PenicuikGB

Lat: 55.830932, Lon: -3.224533000000065

Elevation: 166

Station Type: Fine Offset

http://weather.penicuik.org

High Low Average
Temperature 63.3°F17.4°C 50.4°F10.2°C 56.8°F13.8°C
Dew Point 57.2°F14.0°C 47.0°F8.3°C 51.5°F10.8°C
Winds 8.6 mph 13.8 kmh Calm Calm 4.0 mph SSW6.4 kmh SSW
Wind Gusts 16.8 mph27.0 kmh -- 7.0 mph11.3 kmh
Humidity 95% 62% 83%
Pressure 29.92 in1013.2 mb 29.07 in984.4 mb -
Precipitation 0.12 in3.0 mm - -
Hour Temp Dew Point Humidity Winds Wind Gusts Pressure Precip Precip Rate Daily Precip Total
12:15 AM 55.6°F13.1°C 52.7°F11.5°C 90% 3.6 mph NNW5.8 kmh NNW 5.4 mph8.7 kmh 29.85 in1010.8 mb 0.00 in0.0 mm 0.00 in0.0 mm 0.00 in0.0 mm
12:30 AM 55.8°F13.2°C 52.0°F11.1°C 87% 4.9 mph N7.9 kmh N 14.5 mph23.3 kmh 29.84 in1010.5 mb 0.00 in0.0 mm 0.00 in0.0 mm 0.00 in0.0 mm
12:45 AM 55.6°F13.1°C 51.8°F11.0°C 87% 3.8 mph NW6.1 kmh NW 5.4 mph8.7 kmh 29.84 in1010.5 mb 0.01 in0.3 mm 0.04 in1.0 mm 0.01 in0.3 mm
01:00 AM 55.9°F13.3°C 52.4°F11.3°C 88% 3.3 mph ENE5.3 kmh ENE 5.4 mph8.7 kmh 29.83 in1010.2 mb 0.01 in0.3 mm 0.00 in0.0 mm 0.01 in0.3 mm
01:15 AM 56.3°F13.5°C 52.8°F11.6°C 88% 3.3 mph N5.3 kmh N 6.0 mph9.7 kmh 29.81 in1009.5 mb 0.01 in0.3 mm 0.00 in0.0 mm 0.01 in0.3 mm
01:30 AM 56.3°F13.5°C 53.1°F11.7°C 89% 4.2 mph N6.8 kmh N 13.0 mph20.9 kmh 29.79 in1008.8 mb 0.01 in0.3 mm 0.00 in0.0 mm 0.01 in0.3 mm
01:45 AM 56.1°F13.4°C 52.9°F11.6°C 89% 4.0 mph SSW6.4 kmh SSW 9.2 mph14.8 kmh 29.78 in1008.5 mb 0.00 in0.0 mm 0.00 in0.0 mm 0.01 in0.3 mm
02:15 AM 55.9°F13.3°C 53.1°F11.7°C 90% 5.0 mph SW8.0 kmh SW 12.1 mph19.5 kmh 29.75 in1007.5 mb 0.00 in0.0 mm 0.00 in0.0 mm 0.01 in0.3 mm
02:30 AM 56.8°F13.8°C 54.3°F12.4°C 91% 5.8 mph NNE9.3 kmh NNE 13.0 mph20.9 kmh 29.74 in1007.1 mb 0.00 in0.0 mm 0.00 in0.0 mm 0.01 in0.3 mm
02:45 AM 57.2°F14.0°C 54.0°F12.2°C 89% 4.7 mph NE7.6 kmh NE 10.7 mph17.2 kmh 29.72 in1006.4 mb 0.00 in0.0 mm 0.00 in0.0 mm 0.01 in0.3 mm
03:00 AM 57.6°F14.2°C 55.0°F12.8°C 91% 8.6 mph NE13.8 kmh NE 11.4 mph18.3 kmh 29.71 in1006.1 mb 0.01 in0.3 mm 0.01 in0.3 mm 0.02 in0.5 mm
03:15 AM 57.4°F14.1°C 55.1°F12.8°C 92% 5.5 mph SSW8.9 kmh SSW 9.2 mph14.8 kmh 29.70 in1005.8 mb 0.05 in1.3 mm 0.16 in4.1 mm 0.06 in1.5 mm
03:30 AM 57.2°F14.0°C 55.2°F12.9°C 93% 7.6 mph NE12.2 kmh NE 15.9 mph25.6 kmh 29.68 in1005.1 mb 0.06 in1.5 mm 0.04 in1.0 mm 0.07 in1.8 mm
03:45 AM 57.2°F14.0°C 55.5°F13.1°C 94% 6.6 mph SSW10.6 kmh SSW 13.0 mph20.9 kmh 29.68 in1005.1 mb 0.06 in1.5 mm 0.00 in0.0 mm 0.07 in1.8 mm
04:00 AM 57.6°F14.2°C 55.9°F13.3°C 94% 5.8 mph E9.3 kmh E 9.8 mph15.8 kmh 29.68 in1005.1 mb 0.04 in1.0 mm 0.00 in0.0 mm 0.07 in1.8 mm
04:15 AM 57.7°F14.3°C 56.0°F13.3°C 94% 4.5 mph E7.2 kmh E 14.5 mph23.3 kmh 29.68 in1005.1 mb 0.00 in0.0 mm 0.00 in0.0 mm 0.07 in1.8 mm
04:29 AM 58.1°F14.5°C 56.4°F13.6°C 94% 3.9 mph NNW6.3 kmh NNW 5.0 mph8.0 kmh 29.68 in1005.1 mb 0.00 in0.0 mm 0.00 in0.0 mm 0.07 in1.8 mm
04:30 AM 58.1°F14.5°C 56.4°F13.6°C 94% 3.8 mph NW6.1 kmh NW 5.0 mph8.0 kmh 29.68 in1005.1 mb 0.00 in0.0 mm 0.00 in0.0 mm 0.07 in1.8 mm
04:45 AM 58.3°F14.6°C 56.6°F13.7°C 94% 3.2 mph ENE5.1 kmh ENE 5.4 mph8.7 kmh 29.08 in984.8 mb 0.00 in0.0 mm 0.00 in0.0 mm 0.07 in1.8 mm
05:00 AM 58.3°F14.6°C 56.9°F13.8°C 95% 4.2 mph NNW6.8 kmh NNW 6.9 mph11.1 kmh 29.08 in984.8 mb 0.01 in0.3 mm 0.01 in0.3 mm 0.08 in2.0 mm
05:15 AM 58.5°F14.7°C 57.0°F13.9°C 95% 5.2 mph NW8.4 kmh NW 9.2 mph14.8 kmh 29.08 in984.8 mb 0.01 in0.3 mm 0.00 in0.0 mm 0.08 in2.0 mm
05:30 AM 58.6°F14.8°C 57.2°F14.0°C 95% 4.8 mph WSW7.7 kmh WSW 6.9 mph11.1 kmh 29.08 in984.8 mb 0.01 in0.3 mm 0.00 in0.0 mm 0.08 in2.0 mm
05:31 AM 58.6°F14.8°C 57.2°F14.0°C 95% 4.5 mph WSW7.2 kmh WSW 6.9 mph11.1 kmh 29.07 in984.4 mb 0.01 in0.3 mm 0.00 in0.0 mm 0.08 in2.0 mm
05:45 AM 58.6°F14.8°C 57.2°F14.0°C 95% 5.0 mph WSW8.0 kmh WSW 11.4 mph18.3 kmh 29.07 in984.4 mb 0.01 in0.3 mm 0.00 in0.0 mm 0.08 in2.0 mm
06:00 AM 59.0°F15.0°C 57.0°F13.9°C 93% 3.4 mph W5.5 kmh W 4.5 mph7.2 kmh 29.08 in984.8 mb 0.00 in0.0 mm 0.00 in0.0 mm 0.08 in2.0 mm
06:15 AM 59.0°F15.0°C 56.7°F13.7°C 92% 3.9 mph WNW6.3 kmh WNW 6.0 mph9.7 kmh 29.07 in984.4 mb 0.00 in0.0 mm 0.00 in0.0 mm 0.08 in2.0 mm
06:30 AM 59.0°F15.0°C 56.4°F13.6°C 91% 4.3 mph SW6.9 kmh SW 11.4 mph18.3 kmh 29.08 in984.8 mb 0.00 in0.0 mm 0.00 in0.0 mm 0.08 in2.0 mm
06:45 AM 59.4°F15.2°C 56.1°F13.4°C 89% 5.1 mph WSW8.2 kmh WSW 9.8 mph15.8 kmh 29.09 in985.1 mb 0.00 in0.0 mm 0.00 in0.0 mm 0.08 in2.0 mm
07:00 AM 59.7°F15.4°C 55.9°F13.3°C 87% 4.4 mph S7.1 kmh S 8.3 mph13.4 kmh 29.10 in985.4 mb 0.00 in0.0 mm 0.00 in0.0 mm 0.08 in2.0 mm
07:15 AM 59.2°F15.1°C 55.0°F12.8°C 86% 6.2 mph ENE10.0 kmh ENE 11.4 mph18.3 kmh 29.11 in985.8 mb 0.00 in0.0 mm 0.00 in0.0 mm 0.08 in2.0 mm
07:30 AM 59.5°F15.3°C 54.7°F12.6°C 84% 5.1 mph SW8.2 kmh SW 9.2 mph14.8 kmh 29.12 in986.1 mb 0.00 in0.0 mm 0.00 in0.0 mm 0.08 in2.0 mm
07:45 AM 58.5°F14.7°C 53.3°F11.8°C 83% 4.5 mph WSW7.2 kmh WSW 9.2 mph14.8 kmh 29.14 in986.8 mb 0.00 in0.0 mm 0.00 in0.0 mm 0.08 in2.0 mm
08:15 AM 57.7°F14.3°C 52.3°F11.3°C 82% 5.8 mph W9.3 kmh W 8.3 mph13.4 kmh 29.14 in986.8 mb 0.00 in0.0 mm 0.00 in0.0 mm 0.08 in2.0 mm
08:30 AM 57.9°F14.4°C 52.5°F11.4°C 82% 4.6 mph SSW7.4 kmh SSW 7.6 mph12.2 kmh 29.15 in987.1 mb 0.00 in0.0 mm 0.00 in0.0 mm 0.08 in2.0 mm
08:45 AM 58.6°F14.8°C 52.8°F11.6°C 81% 4.9 mph SW7.9 kmh SW 7.6 mph12.2 kmh 29.15 in987.1 mb 0.00 in0.0 mm 0.00 in0.0 mm 0.08 in2.0 mm
09:00 AM 61.3°F16.3°C 53.0°F11.7°C 74% 4.9 mph S7.9 kmh S 7.6 mph12.2 kmh 29.15 in987.1 mb 0.00 in0.0 mm 0.00 in0.0 mm 0.08 in2.0 mm
09:15 AM 60.1°F15.6°C 53.2°F11.8°C 78% 5.3 mph SSW8.5 kmh SSW 7.6 mph12.2 kmh 29.16 in987.5 mb 0.00 in0.0 mm 0.00 in0.0 mm 0.08 in2.0 mm
09:30 AM 59.5°F15.3°C 53.7°F12.1°C 81% 5.0 mph SE8.0 kmh SE 7.6 mph12.2 kmh 29.16 in987.5 mb 0.00 in0.0 mm 0.00 in0.0 mm 0.08 in2.0 mm
09:45 AM 63.1°F17.3°C 54.0°F12.2°C 72% 4.4 mph WNW7.1 kmh WNW 7.6 mph12.2 kmh 29.17 in987.8 mb 0.00 in0.0 mm 0.00 in0.0 mm 0.08 in2.0 mm
10:00 AM 61.2°F16.2°C 52.1°F11.2°C 72% 3.7 mph SE6.0 kmh SE 6.0 mph9.7 kmh 29.17 in987.8 mb 0.00 in0.0 mm 0.00 in0.0 mm 0.08 in2.0 mm
10:15 AM 61.7°F16.5°C 52.6°F11.4°C 72% 5.2 mph S8.4 kmh S 9.2 mph14.8 kmh 29.17 in987.8 mb 0.00 in0.0 mm 0.00 in0.0 mm 0.08 in2.0 mm
10:30 AM 61.2°F16.2°C 51.3°F10.7°C 70% 5.1 mph SSE8.2 kmh SSE 7.6 mph12.2 kmh 29.17 in987.8 mb 0.00 in0.0 mm 0.00 in0.0 mm 0.08 in2.0 mm
10:45 AM 62.6°F17.0°C 52.3°F11.3°C 69% 5.0 mph SSE8.0 kmh SSE 9.2 mph14.8 kmh 29.18 in988.1 mb 0.00 in0.0 mm 0.00 in0.0 mm 0.08 in2.0 mm
11:00 AM 62.6°F17.0°C 51.1°F10.6°C 66% 6.1 mph WSW9.8 kmh WSW 13.6 mph21.9 kmh 29.18 in988.1 mb 0.00 in0.0 mm 0.00 in0.0 mm 0.08 in2.0 mm
11:30 AM 63.3°F17.4°C 51.8°F11.0°C 66% 3.8 mph NW6.1 kmh NW 8.3 mph13.4 kmh 29.18 in988.1 mb 0.00 in0.0 mm 0.00 in0.0 mm 0.08 in2.0 mm
11:45 AM 60.1°F15.6°C 51.4°F10.8°C 73% 5.1 mph SW8.2 kmh SW 9.2 mph14.8 kmh 29.19 in988.5 mb 0.00 in0.0 mm 0.00 in0.0 mm 0.08 in2.0 mm
12:00 PM 58.3°F14.6°C 52.5°F11.4°C 81% 3.8 mph SW6.1 kmh SW 6.0 mph9.7 kmh 29.20 in988.8 mb 0.00 in0.0 mm 0.00 in0.0 mm 0.08 in2.0 mm
12:15 PM 56.5°F13.6°C 52.4°F11.3°C 86% 3.6 mph SSW5.8 kmh SSW 7.6 mph12.2 kmh 29.21 in989.2 mb 0.04 in1.0 mm 0.16 in4.1 mm 0.12 in3.0 mm
12:30 PM 59.0°F15.0°C 53.9°F12.2°C 83% 4.8 mph SW7.7 kmh SW 9.2 mph14.8 kmh 29.21 in989.2 mb 0.04 in1.0 mm 0.00 in0.0 mm 0.12 in3.0 mm
12:45 PM 57.9°F14.4°C 51.8°F11.0°C 80% 4.6 mph WSW7.4 kmh WSW 9.8 mph15.8 kmh 29.21 in989.2 mb 0.04 in1.0 mm 0.00 in0.0 mm 0.12 in3.0 mm
01:00 PM 58.3°F14.6°C 51.5°F10.8°C 78% 5.4 mph WSW8.7 kmh WSW 8.3 mph13.4 kmh 29.24 in990.2 mb 0.04 in1.0 mm 0.00 in0.0 mm 0.12 in3.0 mm
01:15 PM 58.5°F14.7°C 50.9°F10.5°C 76% 4.8 mph SSE7.7 kmh SSE 8.3 mph13.4 kmh 29.23 in989.8 mb 0.00 in0.0 mm 0.00 in0.0 mm 0.12 in3.0 mm
01:30 PM 59.5°F15.3°C 50.5°F10.3°C 72% 6.0 mph S9.7 kmh S 16.8 mph27.0 kmh 29.24 in990.2 mb 0.00 in0.0 mm 0.00 in0.0 mm 0.12 in3.0 mm
01:45 PM 60.1°F15.6°C 48.7°F9.3°C 66% 6.0 mph SSW9.7 kmh SSW 12.1 mph19.5 kmh 29.24 in990.2 mb 0.00 in0.0 mm 0.00 in0.0 mm 0.12 in3.0 mm
02:00 PM 59.9°F15.5°C 47.7°F8.7°C 64% 4.9 mph SW7.9 kmh SW 9.2 mph14.8 kmh 29.25 in990.5 mb 0.00 in0.0 mm 0.00 in0.0 mm 0.12 in3.0 mm
02:15 PM 60.1°F15.6°C 49.1°F9.5°C 67% 3.3 mph ESE5.3 kmh ESE 6.0 mph9.7 kmh 29.25 in990.5 mb 0.00 in0.0 mm 0.00 in0.0 mm 0.12 in3.0 mm
03:00 PM 60.1°F15.6°C 47.0°F8.3°C 62% 4.7 mph SW7.6 kmh SW 7.6 mph12.2 kmh 29.26 in990.9 mb 0.00 in0.0 mm 0.00 in0.0 mm 0.12 in3.0 mm
03:15 PM 58.3°F14.6°C 47.0°F8.3°C 66% 4.2 mph SSE6.8 kmh SSE 6.0 mph9.7 kmh 29.26 in990.9 mb 0.00 in0.0 mm 0.00 in0.0 mm 0.12 in3.0 mm
03:30 PM 57.7°F14.3°C 47.7°F8.7°C 69% 4.3 mph WSW6.9 kmh WSW 6.0 mph9.7 kmh 29.27 in991.2 mb 0.00 in0.0 mm 0.00 in0.0 mm 0.12 in3.0 mm
03:45 PM 57.7°F14.3°C 48.4°F9.1°C 71% 4.2 mph SW6.8 kmh SW 8.3 mph13.4 kmh 29.27 in991.2 mb 0.00 in0.0 mm 0.00 in0.0 mm 0.12 in3.0 mm
04:15 PM 57.2°F14.0°C 48.3°F9.1°C 72% 3.1 mph SW5.0 kmh SW 3.8 mph6.1 kmh 29.27 in991.2 mb 0.00 in0.0 mm 0.00 in0.0 mm 0.12 in3.0 mm
04:30 PM 57.0°F13.9°C 48.5°F9.2°C 73% 4.0 mph WSW6.4 kmh WSW 5.4 mph8.7 kmh 29.28 in991.5 mb 0.00 in0.0 mm 0.00 in0.0 mm 0.12 in3.0 mm
04:45 PM 56.7°F13.7°C 48.1°F8.9°C 73% 3.6 mph WSW5.8 kmh WSW 6.9 mph11.1 kmh 29.28 in991.5 mb 0.00 in0.0 mm 0.00 in0.0 mm 0.12 in3.0 mm
05:00 PM 56.1°F13.4°C 48.0°F8.9°C 74% 3.2 mph N5.1 kmh N 5.4 mph8.7 kmh 29.28 in991.5 mb 0.00 in0.0 mm 0.00 in0.0 mm 0.12 in3.0 mm
05:30 PM 55.6°F13.1°C 48.1°F8.9°C 76% 3.1 mph SE5.0 kmh SE 4.5 mph7.2 kmh 29.28 in991.5 mb 0.00 in0.0 mm 0.00 in0.0 mm 0.12 in3.0 mm
05:45 PM 55.2°F12.9°C 48.5°F9.2°C 78% 2.5 mph S4.0 kmh S 3.8 mph6.1 kmh 29.29 in991.9 mb 0.00 in0.0 mm 0.00 in0.0 mm 0.12 in3.0 mm
05:46 PM 55.2°F12.9°C 48.5°F9.2°C 78% 2.3 mph SSW3.7 kmh SSW 3.8 mph6.1 kmh 29.29 in991.9 mb 0.00 in0.0 mm 0.00 in0.0 mm 0.12 in3.0 mm
05:58 PM 55.0°F12.8°C 48.3°F9.1°C 78% 2.0 mph SW3.2 kmh SW 2.2 mph3.5 kmh 29.89 in1012.2 mb 0.00 in0.0 mm 0.00 in0.0 mm 0.12 in3.0 mm
06:00 PM 55.0°F12.8°C 48.3°F9.1°C 78% 3.1 mph ESE5.0 kmh ESE 3.8 mph6.1 kmh 29.89 in1012.2 mb 0.00 in0.0 mm 0.00 in0.0 mm 0.12 in3.0 mm
06:15 PM 54.3°F12.4°C 48.0°F8.9°C 79% 3.0 mph SW4.8 kmh SW 5.4 mph8.7 kmh 29.89 in1012.2 mb 0.00 in0.0 mm 0.00 in0.0 mm 0.12 in3.0 mm
06:30 PM 54.3°F12.4°C 48.0°F8.9°C 79% 1.6 mph E2.6 kmh E 3.1 mph5.0 kmh 29.89 in1012.2 mb 0.00 in0.0 mm 0.00 in0.0 mm 0.12 in3.0 mm
06:45 PM 54.0°F12.2°C 47.9°F8.8°C 80% 1.6 mph N2.6 kmh N 3.1 mph5.0 kmh 29.89 in1012.2 mb 0.00 in0.0 mm 0.00 in0.0 mm 0.12 in3.0 mm
07:00 PM 53.6°F12.0°C 47.9°F8.8°C 81% 1.4 mph SW2.3 kmh SW 1.6 mph2.6 kmh 29.90 in1012.5 mb 0.00 in0.0 mm 0.00 in0.0 mm 0.12 in3.0 mm
07:15 PM 53.1°F11.7°C 48.0°F8.9°C 83% 0.9 mph NW1.4 kmh NW 2.2 mph3.5 kmh 29.90 in1012.5 mb 0.00 in0.0 mm 0.00 in0.0 mm 0.12 in3.0 mm
07:30 PM 52.7°F11.5°C 47.7°F8.7°C 83% 1.2 mph W1.9 kmh W 2.2 mph3.5 kmh 29.90 in1012.5 mb 0.00 in0.0 mm 0.00 in0.0 mm 0.12 in3.0 mm
07:45 PM 52.0°F11.1°C 47.6°F8.7°C 85% 0.9 mph N1.4 kmh N 2.2 mph3.5 kmh 29.91 in1012.9 mb 0.00 in0.0 mm 0.00 in0.0 mm 0.12 in3.0 mm
08:00 PM 52.0°F11.1°C 47.9°F8.8°C 86% 0.5 mph NNW0.8 kmh NNW 1.6 mph2.6 kmh 29.90 in1012.5 mb 0.00 in0.0 mm 0.00 in0.0 mm 0.12 in3.0 mm
08:30 PM 51.4°F10.8°C 47.7°F8.7°C 87% 0.5 mph NNW0.8 kmh NNW 1.6 mph2.6 kmh 29.90 in1012.5 mb 0.00 in0.0 mm 0.00 in0.0 mm 0.12 in3.0 mm
08:45 PM 51.3°F10.7°C 47.8°F8.8°C 88% 0.9 mph W1.4 kmh W 1.6 mph2.6 kmh 29.90 in1012.5 mb 0.00 in0.0 mm 0.00 in0.0 mm 0.12 in3.0 mm
09:00 PM 51.3°F10.7°C 47.5°F8.6°C 87% 0.2 mph WSW0.3 kmh WSW 0.7 mph1.1 kmh 29.90 in1012.5 mb 0.00 in0.0 mm 0.00 in0.0 mm 0.12 in3.0 mm
09:15 PM 51.3°F10.7°C 47.8°F8.8°C 88% Calm Calm -- 29.90 in1012.5 mb 0.00 in0.0 mm 0.00 in0.0 mm 0.12 in3.0 mm
09:30 PM 51.3°F10.7°C 48.1°F8.9°C 89% Calm Calm -- 29.91 in1012.9 mb 0.00 in0.0 mm 0.00 in0.0 mm 0.12 in3.0 mm
09:45 PM 51.3°F10.7°C 48.4°F9.1°C 90% Calm Calm -- 29.90 in1012.5 mb 0.00 in0.0 mm 0.00 in0.0 mm 0.12 in3.0 mm
10:00 PM 51.3°F10.7°C 48.4°F9.1°C 90% Calm Calm -- 29.91 in1012.9 mb 0.00 in0.0 mm 0.00 in0.0 mm 0.12 in3.0 mm
10:15 PM 51.3°F10.7°C 48.4°F9.1°C 90% 0.1 mph NW0.2 kmh NW 0.7 mph1.1 kmh 29.91 in1012.9 mb 0.00 in0.0 mm 0.00 in0.0 mm 0.12 in3.0 mm
10:30 PM 51.3°F10.7°C 48.7°F9.3°C 91% Calm Calm -- 29.92 in1013.2 mb 0.00 in0.0 mm 0.00 in0.0 mm 0.12 in3.0 mm
10:45 PM 51.3°F10.7°C 48.7°F9.3°C 91% Calm Calm -- 29.91 in1012.9 mb 0.00 in0.0 mm 0.00 in0.0 mm 0.12 in3.0 mm
11:15 PM 50.4°F10.2°C 48.1°F8.9°C 92% 0.3 mph SW0.5 kmh SW 1.6 mph2.6 kmh 29.91 in1012.9 mb 0.00 in0.0 mm 0.00 in0.0 mm 0.12 in3.0 mm
11:30 PM 51.3°F10.7°C 49.3°F9.6°C 93% 0.6 mph W1.0 kmh W 2.2 mph3.5 kmh 29.90 in1012.5 mb 0.00 in0.0 mm 0.00 in0.0 mm 0.12 in3.0 mm
11:45 PM 51.8°F11.0°C 49.8°F9.9°C 93% 0.5 mph NW0.8 kmh NW 1.6 mph2.6 kmh 29.90 in1012.5 mb 0.00 in0.0 mm 0.00 in0.0 mm 0.12 in3.0 mm